Time;durP1;ratioP1;P1;durP2;ratioP2;P2;SDS_P1;SDS_P2;PMS_P1;PMS_P2;Temp;Humidity;BMP_temperature;BMP_pressure;BME280_temperature;BME280_humidity;BME280_pressure;Samples;Min_cycle;Max_cycle;Signal;HPM_P1;HPM_P2
2024/01/09 00:02:18;;;;;;;4.82;1.60;;;-3.20;99.90;;;;;;5095560;28;20083;-86
2024/01/09 00:04:44;;;;;;;4.68;1.70;;;-3.20;99.90;;;;;;5111768;28;20071;-85
2024/01/09 00:07:09;;;;;;;9.63;2.47;;;-3.00;99.90;;;;;;5119908;27;20031;-84
2024/01/09 00:09:36;;;;;;;5.68;2.15;;;-2.20;99.90;;;;;;5133189;27;20041;-85
2024/01/09 00:12:02;;;;;;;4.93;1.50;;;-2.80;99.90;;;;;;5154780;27;20445;-85
2024/01/09 00:14:28;;;;;;;3.83;1.45;;;-2.20;99.90;;;;;;5154379;27;20030;-85
2024/01/09 00:16:54;;;;;;;4.20;1.50;;;-2.70;99.90;;;;;;5154677;27;20505;-84
2024/01/09 00:19:19;;;;;;;6.75;1.60;;;-3.30;99.90;;;;;;5127676;27;20050;-85
2024/01/09 00:21:48;;;;;;;3.45;1.50;;;-2.80;99.90;;;;;;5095223;28;20142;-85
2024/01/09 00:24:13;;;;;;;5.13;1.63;;;-3.00;99.90;;;;;;5113206;28;20127;-85
2024/01/09 00:26:43;;;;;;;6.07;1.80;;;-3.30;99.90;;;;;;5080110;28;20133;-85
2024/01/09 00:29:09;;;;;;;3.88;1.65;;;-3.30;99.90;;;;;;5111973;28;20383;-85
2024/01/09 00:31:35;;;;;;;6.07;1.63;;;-3.40;99.90;;;;;;5095040;28;20504;-85
2024/01/09 00:34:01;;;;;;;5.75;1.65;;;-2.70;99.90;;;;;;5108393;28;20046;-85
2024/01/09 00:36:27;;;;;;;6.15;1.70;;;-2.10;99.90;;;;;;5133938;28;20077;-85
2024/01/09 00:38:52;;;;;;;3.60;1.65;;;-3.50;99.90;;;;;;5116667;28;20471;-84
2024/01/09 00:41:18;;;;;;;5.22;1.50;;;;;;;;;;5111907;28;20079;-85
2024/01/09 00:43:44;;;;;;;4.30;1.50;;;-3.30;99.90;;;;;;5095003;28;20392;-85
2024/01/09 00:46:10;;;;;;;6.05;1.70;;;-3.50;99.90;;;;;;5112883;28;20043;-85
2024/01/09 00:48:36;;;;;;;6.03;1.55;;;-3.50;99.90;;;;;;5102575;27;20031;-85
2024/01/09 00:51:02;;;;;;;7.40;1.60;;;-3.40;99.90;;;;;;5137462;27;20122;-85
2024/01/09 00:53:27;;;;;;;5.35;1.98;;;-3.40;99.90;;;;;;5137489;27;20035;-86
2024/01/09 00:55:53;;;;;;;6.47;1.98;;;-2.90;99.90;;;;;;5119299;27;20124;-87
2024/01/09 00:58:19;;;;;;;5.70;2.03;;;-2.80;99.90;;;;;;5145672;27;20441;-85
2024/01/09 01:00:45;;;;;;;5.55;1.98;;;-2.90;99.90;;;;;;5138231;27;20042;-87
2024/01/09 01:03:11;;;;;;;5.88;1.98;;;-1.80;99.90;;;;;;5098464;28;20081;-85
2024/01/09 01:05:36;;;;;;;4.03;1.55;;;-2.70;99.90;;;;;;5098360;28;20472;-85
2024/01/09 01:08:02;;;;;;;3.97;1.83;;;-3.40;99.90;;;;;;5102916;27;20135;-85
2024/01/09 01:10:28;;;;;;;5.40;2.15;;;-3.70;99.90;;;;;;5118759;27;20038;-85
2024/01/09 01:12:53;;;;;;;8.48;1.48;;;-3.00;99.90;;;;;;5136933;27;20043;-85
2024/01/09 01:15:19;;;;;;;5.40;1.45;;;-1.00;99.90;;;;;;5118664;27;20046;-86
2024/01/09 01:17:45;;;;;;;5.78;1.70;;;-2.80;99.90;;;;;;5116949;27;20038;-85
2024/01/09 01:20:11;;;;;;;3.00;1.42;;;-3.00;99.90;;;;;;5137966;27;20035;-86
2024/01/09 01:22:37;;;;;;;6.07;1.48;;;-3.80;99.90;;;;;;5135738;27;20035;-85
2024/01/09 01:25:03;;;;;;;3.85;1.40;;;-2.90;99.90;;;;;;5098077;28;20047;-85
2024/01/09 01:27:28;;;;;;;8.00;1.65;;;-3.90;99.90;;;;;;5098398;28;20063;-85
2024/01/09 01:29:55;;;;;;;7.78;2.70;;;-3.90;99.90;;;;;;5103180;27;20039;-85
2024/01/09 01:32:21;;;;;;;5.20;1.58;;;-3.80;99.90;;;;;;5112027;27;20044;-87
2024/01/09 01:34:46;;;;;;;2.78;1.30;;;-3.80;99.90;;;;;;5097945;28;20480;-85
2024/01/09 01:37:12;;;;;;;3.78;1.20;;;-3.80;99.90;;;;;;5116309;28;20079;-86
2024/01/09 01:39:38;;;;;;;3.97;1.63;;;-3.80;99.90;;;;;;5104370;27;20442;-84
2024/01/09 01:42:04;;;;;;;4.25;1.20;;;-2.10;99.90;;;;;;5143974;27;20064;-85
2024/01/09 01:44:30;;;;;;;5.18;1.50;;;-3.80;99.90;;;;;;5149891;27;20475;-85
2024/01/09 01:46:56;;;;;;;3.47;1.60;;;-4.00;99.90;;;;;;5136470;27;20043;-85
2024/01/09 01:49:22;;;;;;;6.03;1.35;;;-3.80;99.90;;;;;;5117766;27;20051;-85
2024/01/09 01:51:50;;;;;;;4.20;1.90;;;-3.40;99.90;;;;;;5146720;27;20042;-84
2024/01/09 01:54:16;;;;;;;5.32;2.03;;;-3.80;99.90;;;;;;5156864;27;20042;-86
2024/01/09 01:56:44;;;;;;;2.78;1.65;;;-3.60;99.90;;;;;;5138285;27;20167;-86
2024/01/09 01:59:13;;;;;;;3.45;1.67;;;-3.80;99.90;;;;;;5150374;27;20059;-85
2024/01/09 02:01:39;;;;;;;3.15;1.63;;;-3.00;99.90;;;;;;5118878;27;20043;-85
2024/01/09 02:04:07;;;;;;;3.75;1.60;;;-3.90;99.90;;;;;;5117776;27;20046;-85
2024/01/09 02:06:33;;;;;;;5.40;2.13;;;-3.90;99.90;;;;;;5115618;27;20450;-85
2024/01/09 02:08:59;;;;;;;3.67;2.03;;;-3.80;99.90;;;;;;5115498;28;20036;-85
2024/01/09 02:11:25;;;;;;;3.30;1.55;;;-3.20;99.90;;;;;;5121161;27;20054;-85
2024/01/09 02:13:51;;;;;;;3.85;1.83;;;-3.60;99.90;;;;;;5133748;27;20031;-85
2024/01/09 02:16:17;;;;;;;5.72;1.77;;;-3.00;99.90;;;;;;5117216;27;20129;-86
2024/01/09 02:18:42;;;;;;;6.55;1.90;;;-3.90;99.90;;;;;;5117711;27;20039;-85
2024/01/09 02:21:08;;;;;;;4.88;1.75;;;-2.70;99.90;;;;;;5117585;27;20399;-84
2024/01/09 02:23:34;;;;;;;3.65;1.73;;;-2.20;99.90;;;;;;5136753;27;20479;-84
2024/01/09 02:26:00;;;;;;;5.65;2.05;;;-3.80;99.90;;;;;;5117613;27;20104;-85
2024/01/09 02:28:33;;;;;;;2.95;1.65;;;-2.00;99.90;;;;;;5112067;28;20031;-85
2024/01/09 02:31:00;;;;;;;3.60;1.52;;;-2.80;99.90;;;;;;5096485;28;20081;-84
2024/01/09 02:33:27;;;;;;;5.95;2.22;;;-3.90;99.90;;;;;;5124292;27;20039;-85
2024/01/09 02:35:53;;;;;;;3.25;1.80;;;-3.20;99.90;;;;;;5117560;27;20390;-87
2024/01/09 02:38:21;;;;;;;7.15;2.28;;;-3.90;99.90;;;;;;5113561;27;20043;-85
2024/01/09 02:40:46;;;;;;;4.82;2.10;;;-3.30;99.90;;;;;;5115034;27;20046;-84
2024/01/09 02:43:12;;;;;;;6.15;2.15;;;-1.60;99.90;;;;;;5079737;27;20040;-85
2024/01/09 02:45:38;;;;;;;7.15;1.90;;;-3.90;99.90;;;;;;5118057;27;20051;-85
2024/01/09 02:48:04;;;;;;;3.78;2.00;;;-4.00;99.90;;;;;;5116751;27;20475;-86
2024/01/09 02:50:29;;;;;;;6.75;1.88;;;-4.00;99.90;;;;;;5116508;27;20050;-84
2024/01/09 02:52:55;;;;;;;7.07;1.58;;;-4.10;99.90;;;;;;5117801;27;20042;-85
2024/01/09 02:55:21;;;;;;;5.25;1.90;;;-3.20;99.90;;;;;;5133940;27;20051;-85
2024/01/09 02:57:46;;;;;;;4.15;2.30;;;-4.10;99.90;;;;;;5116794;27;20062;-86
2024/01/09 03:00:12;;;;;;;5.15;1.80;;;-4.10;99.90;;;;;;5134723;27;20039;-84
2024/01/09 03:02:38;;;;;;;7.38;1.70;;;-4.10;99.90;;;;;;5116722;27;20440;-84
2024/01/09 03:05:05;;;;;;;5.78;2.17;;;-4.10;99.90;;;;;;5114154;27;20110;-84
2024/01/09 03:07:31;;;;;;;3.65;1.65;;;-4.20;99.90;;;;;;5096346;28;20130;-84
2024/01/09 03:09:56;;;;;;;5.32;1.60;;;-4.10;99.90;;;;;;5095685;28;20471;-86
2024/01/09 03:12:22;;;;;;;3.72;1.65;;;-4.30;99.90;;;;;;5095256;28;20122;-86
2024/01/09 03:14:48;;;;;;;5.47;1.63;;;-3.50;99.90;;;;;;5105856;27;20495;-86
2024/01/09 03:17:13;;;;;;;6.68;1.70;;;-4.30;99.90;;;;;;5099281;27;20103;-85
2024/01/09 03:19:41;;;;;;;6.70;1.88;;;-3.70;99.90;;;;;;5116035;27;20463;-84
2024/01/09 03:22:06;;;;;;;6.13;2.13;;;-3.00;99.90;;;;;;5134703;27;20090;-86
2024/01/09 03:24:32;;;;;;;5.30;1.90;;;-3.80;99.90;;;;;;5129810;27;20067;-85
2024/01/09 03:26:58;;;;;;;4.82;2.15;;;-3.60;99.90;;;;;;5135581;27;20151;-85
2024/01/09 03:29:23;;;;;;;2.65;1.65;;;-4.50;99.90;;;;;;5134299;27;20092;-84
2024/01/09 03:31:50;;;;;;;8.25;2.85;;;-2.80;99.90;;;;;;5115137;27;20035;-85
2024/01/09 03:34:16;;;;;;;5.40;1.83;;;-4.40;99.90;;;;;;5115864;27;20078;-85
2024/01/09 03:36:43;;;;;;;7.00;2.17;;;-4.40;99.90;;;;;;5117373;27;20451;-84
2024/01/09 03:39:10;;;;;;;5.32;1.90;;;-4.00;99.90;;;;;;5096742;28;20043;-84
2024/01/09 03:41:36;;;;;;;6.55;2.35;;;-4.40;99.90;;;;;;5113738;28;20040;-84
2024/01/09 03:44:02;;;;;;;5.32;2.05;;;-4.40;99.90;;;;;;5078349;28;20048;-84
2024/01/09 03:46:28;;;;;;;4.00;2.05;;;-4.40;99.90;;;;;;5098929;27;20086;-85
2024/01/09 03:48:54;;;;;;;7.15;2.30;;;-4.50;99.90;;;;;;5112135;28;20040;-85
2024/01/09 03:51:19;;;;;;;5.28;2.05;;;-3.60;99.90;;;;;;5112070;28;20048;-84
2024/01/09 03:53:45;;;;;;;4.22;1.63;;;-4.10;99.90;;;;;;5112234;28;20042;-84
2024/01/09 03:56:11;;;;;;;6.25;1.85;;;-2.20;99.90;;;;;;5078267;28;20456;-84
2024/01/09 03:58:37;;;;;;;4.63;2.05;;;-4.40;99.90;;;;;;5128835;27;20039;-84
2024/01/09 04:01:03;;;;;;;3.63;2.13;;;-4.30;99.90;;;;;;5115426;28;20050;-84
2024/01/09 04:03:28;;;;;;;5.30;2.28;;;-4.30;99.90;;;;;;5133993;28;20100;-84
2024/01/09 04:05:54;;;;;;;7.78;2.40;;;-4.50;99.90;;;;;;5111449;28;20047;-84
2024/01/09 04:08:20;;;;;;;5.03;2.10;;;-4.10;99.90;;;;;;5119923;28;20039;-84
2024/01/09 04:10:46;;;;;;;4.95;2.22;;;-3.50;99.90;;;;;;5134046;28;20088;-84
2024/01/09 04:13:11;;;;;;;8.32;2.28;;;-4.30;99.90;;;;;;5133963;28;20502;-84
2024/01/09 04:15:38;;;;;;;7.90;2.17;;;-4.20;99.90;;;;;;5133843;28;20049;-84
2024/01/09 04:18:04;;;;;;;5.68;2.80;;;-3.70;99.90;;;;;;5111899;28;20047;-84
2024/01/09 04:20:29;;;;;;;4.63;2.72;;;-4.00;99.90;;;;;;5101947;28;20039;-84
2024/01/09 04:22:55;;;;;;;6.38;2.78;;;-4.30;99.90;;;;;;5134805;27;20074;-85
2024/01/09 04:25:21;;;;;;;7.03;2.38;;;-4.30;99.90;;;;;;5106933;27;20043;-84
2024/01/09 04:27:46;;;;;;;6.15;2.80;;;-4.60;99.90;;;;;;5133028;27;20121;-85
2024/01/09 04:30:12;;;;;;;7.53;2.72;;;-3.30;99.90;;;;;;5136929;27;20559;-85
2024/01/09 04:32:38;;;;;;;5.97;2.65;;;-4.40;99.90;;;;;;5158059;27;20070;-84
2024/01/09 04:35:04;;;;;;;6.28;2.35;;;-4.50;99.90;;;;;;5142531;27;20039;-84
2024/01/09 04:37:30;;;;;;;5.40;2.47;;;-4.40;99.90;;;;;;5102429;27;20044;-84
2024/01/09 04:39:55;;;;;;;5.57;2.70;;;-3.50;99.90;;;;;;5117360;28;20173;-85
2024/01/09 04:42:21;;;;;;;5.78;3.03;;;-4.60;99.90;;;;;;5118110;27;20065;-84
2024/01/09 04:44:47;;;;;;;5.35;2.90;;;-3.20;99.90;;;;;;5116978;28;20044;-84
2024/01/09 04:47:15;;;;;;;9.50;2.92;;;-4.40;99.90;;;;;;5129928;27;20043;-85
2024/01/09 04:49:42;;;;;;;6.82;2.95;;;-3.50;99.90;;;;;;5098941;28;20062;-84
2024/01/09 04:52:08;;;;;;;5.68;2.78;;;-4.40;99.90;;;;;;5081856;28;20442;-85
2024/01/09 04:54:34;;;;;;;6.05;3.30;;;-4.40;99.90;;;;;;5117017;28;20051;-84
2024/01/09 04:57:00;;;;;;;6.32;2.53;;;-4.40;99.90;;;;;;5129913;27;20043;-85
2024/01/09 04:59:25;;;;;;;8.40;3.28;;;-4.40;99.90;;;;;;5119143;27;20050;-84
2024/01/09 05:01:51;;;;;;;6.05;2.90;;;-4.40;99.90;;;;;;5119403;27;20134;-84
2024/01/09 05:04:17;;;;;;;7.53;2.90;;;-2.10;99.90;;;;;;5125706;27;20504;-84
2024/01/09 05:06:42;;;;;;;8.25;3.22;;;-4.50;99.90;;;;;;5103040;27;20043;-84
2024/01/09 05:09:08;;;;;;;8.73;3.78;;;-4.50;99.90;;;;;;5118937;27;20039;-85
2024/01/09 05:11:34;;;;;;;9.40;3.05;;;-4.50;99.90;;;;;;5090670;28;20071;-84
2024/01/09 05:13:59;;;;;;;5.93;2.40;;;-2.40;99.90;;;;;;5098425;28;20036;-84
2024/01/09 05:16:27;;;;;;;5.97;2.50;;;-4.50;99.90;;;;;;5115631;27;20043;-84
2024/01/09 05:18:53;;;;;;;7.75;2.63;;;-4.60;99.90;;;;;;5136587;27;20065;-84
2024/01/09 05:21:19;;;;;;;8.48;3.05;;;-4.60;99.90;;;;;;5118648;27;20051;-83
2024/01/09 05:23:45;;;;;;;8.38;3.20;;;-4.60;99.90;;;;;;5118531;27;20045;-84
2024/01/09 05:26:11;;;;;;;6.05;2.80;;;-4.70;99.90;;;;;;5118791;27;20031;-84
2024/01/09 05:28:36;;;;;;;7.47;3.40;;;-4.60;99.90;;;;;;5136954;27;20045;-84
2024/01/09 05:31:02;;;;;;;5.82;3.22;;;-4.70;99.90;;;;;;5118314;27;20047;-85
2024/01/09 05:33:28;;;;;;;8.63;3.20;;;-4.60;99.90;;;;;;5118796;27;20058;-84
2024/01/09 05:35:54;;;;;;;6.43;2.95;;;-4.40;99.90;;;;;;5097669;28;20040;-85
2024/01/09 05:38:20;;;;;;;7.00;3.33;;;-3.80;99.90;;;;;;5135883;27;20046;-84
2024/01/09 05:40:46;;;;;;;6.80;3.20;;;-3.80;99.90;;;;;;5098160;28;20472;-85
2024/01/09 05:43:12;;;;;;;7.38;3.47;;;-4.30;99.90;;;;;;5097828;28;20043;-84
2024/01/09 05:45:38;;;;;;;6.35;3.25;;;-4.70;99.90;;;;;;5115886;28;20404;-86
2024/01/09 05:48:04;;;;;;;6.00;3.30;;;-4.70;99.90;;;;;;5093535;27;20039;-84
2024/01/09 05:50:30;;;;;;;7.55;3.15;;;-4.70;99.90;;;;;;5100555;27;20534;-84
2024/01/09 05:52:55;;;;;;;8.38;2.80;;;-4.70;99.90;;;;;;5136662;27;20048;-85
2024/01/09 05:55:21;;;;;;;5.68;3.05;;;-4.80;99.90;;;;;;5122252;27;20185;-84
2024/01/09 05:57:47;;;;;;;6.63;3.25;;;-4.70;99.90;;;;;;5111946;27;20048;-84
2024/01/09 06:00:13;;;;;;;9.13;3.58;;;-4.10;99.90;;;;;;5080663;28;20048;-84
2024/01/09 06:02:38;;;;;;;7.78;2.78;;;-4.70;99.90;;;;;;5115646;28;20051;-84
2024/01/09 06:05:05;;;;;;;8.55;3.33;;;-3.60;99.90;;;;;;5115150;28;20134;-84
2024/01/09 06:07:30;;;;;;;6.50;3.53;;;-4.80;99.90;;;;;;5106361;27;20028;-84
2024/01/09 06:09:56;;;;;;;6.82;2.78;;;-4.80;99.90;;;;;;5097648;28;20050;-84
2024/01/09 06:12:22;;;;;;;8.32;2.67;;;-4.80;99.90;;;;;;5106469;27;20058;-84
2024/01/09 06:14:47;;;;;;;6.78;3.40;;;-4.80;99.90;;;;;;5100616;27;20039;-84
2024/01/09 06:17:14;;;;;;;6.97;3.20;;;-4.60;99.90;;;;;;5115914;27;20106;-83
2024/01/09 06:19:39;;;;;;;7.55;3.47;;;-4.80;99.90;;;;;;5114653;27;20043;-84
2024/01/09 06:22:05;;;;;;;6.97;3.33;;;-4.20;99.90;;;;;;5096957;28;20047;-83
2024/01/09 06:24:32;;;;;;;8.60;3.33;;;-4.80;99.90;;;;;;5097327;28;20048;-84
2024/01/09 06:26:57;;;;;;;8.15;3.25;;;-4.90;99.90;;;;;;5097005;28;20077;-85
2024/01/09 06:29:23;;;;;;;7.15;3.13;;;-4.90;99.90;;;;;;5105911;27;20039;-84
2024/01/09 06:31:48;;;;;;;6.25;3.25;;;-4.90;99.90;;;;;;5096908;28;20043;-84
2024/01/09 06:34:14;;;;;;;5.90;3.08;;;-4.70;99.90;;;;;;5101040;27;20509;-84
2024/01/09 06:36:40;;;;;;;5.70;2.95;;;-4.40;99.90;;;;;;5101578;28;20043;-83
2024/01/09 06:39:06;;;;;;;9.07;2.72;;;-5.00;99.90;;;;;;5100647;27;20179;-84
2024/01/09 06:41:32;;;;;;;5.45;2.65;;;-4.90;99.90;;;;;;5135602;27;20078;-84
2024/01/09 06:43:57;;;;;;;8.25;3.25;;;-5.00;99.90;;;;;;5117092;27;20031;-84
2024/01/09 06:46:23;;;;;;;4.07;2.33;;;-5.00;99.90;;;;;;5135352;27;20070;-83
2024/01/09 06:48:48;;;;;;;5.22;2.60;;;-5.00;99.90;;;;;;5115264;27;20039;-83
2024/01/09 06:51:14;;;;;;;4.88;2.70;;;-5.00;99.90;;;;;;5136044;27;20039;-84
2024/01/09 06:53:40;;;;;;;5.85;2.60;;;-5.00;99.90;;;;;;5099792;27;20122;-84
2024/01/09 06:56:06;;;;;;;7.55;2.80;;;-5.00;99.90;;;;;;5094994;28;20395;-84
2024/01/09 06:58:31;;;;;;;4.57;2.13;;;-4.40;99.90;;;;;;5096481;28;20135;-83
2024/01/09 07:00:57;;;;;;;7.40;3.05;;;-5.10;99.90;;;;;;5102578;27;20074;-83
2024/01/09 07:03:24;;;;;;;6.15;2.72;;;-4.30;99.90;;;;;;5076145;28;20036;-84
2024/01/09 07:05:50;;;;;;;5.72;2.67;;;-5.20;99.90;;;;;;5105129;28;20122;-83
2024/01/09 07:08:18;;;;;;;5.18;2.30;;;-5.30;99.90;;;;;;5075822;28;20135;-84
2024/01/09 07:10:43;;;;;;;7.15;3.10;;;-5.40;99.90;;;;;;5093968;28;20080;-84
2024/01/09 07:13:09;;;;;;;5.15;2.63;;;-5.30;99.90;;;;;;5102520;28;20055;-83
2024/01/09 07:15:36;;;;;;;5.53;2.75;;;-5.30;99.90;;;;;;5113952;28;20035;-84
2024/01/09 07:18:02;;;;;;;6.60;2.85;;;-5.00;99.90;;;;;;5108526;28;20085;-84
2024/01/09 07:20:28;;;;;;;5.43;2.50;;;-5.30;99.90;;;;;;5095313;27;20043;-83
2024/01/09 07:22:54;;;;;;;4.20;2.15;;;-4.10;99.90;;;;;;5095302;28;20035;-84
2024/01/09 07:25:19;;;;;;;10.00;2.55;;;-5.50;99.90;;;;;;5095398;28;20132;-84
2024/01/09 07:27:45;;;;;;;8.32;3.10;;;-5.30;99.90;;;;;;5091236;28;20047;-83
2024/01/09 07:30:11;;;;;;;7.88;2.67;;;-5.40;99.90;;;;;;5094325;28;20040;-83
2024/01/09 07:32:37;;;;;;;8.23;3.00;;;-5.40;99.90;;;;;;5114860;27;20056;-84
2024/01/09 07:35:04;;;;;;;6.10;2.53;;;-5.40;99.90;;;;;;5070782;28;20038;-83
2024/01/09 07:37:30;;;;;;;7.43;2.95;;;-5.40;99.90;;;;;;5113845;28;20499;-84
2024/01/09 07:39:56;;;;;;;5.90;2.30;;;-5.40;99.90;;;;;;5075123;28;20067;-84
2024/01/09 07:42:21;;;;;;;8.02;2.60;;;-5.50;99.90;;;;;;5110863;27;20039;-83
2024/01/09 07:44:47;;;;;;;4.88;2.78;;;-5.40;99.90;;;;;;5095699;28;20092;-83
2024/01/09 07:47:13;;;;;;;6.53;3.08;;;-5.80;99.90;;;;;;5089765;28;20032;-83
2024/01/09 07:49:39;;;;;;;5.68;2.85;;;-5.40;99.90;;;;;;5075842;28;20028;-84
2024/01/09 07:52:05;;;;;;;5.43;2.67;;;-5.50;99.90;;;;;;5081329;28;20480;-83
2024/01/09 07:54:31;;;;;;;5.82;2.75;;;-5.40;99.90;;;;;;5100334;28;20036;-84
2024/01/09 07:56:56;;;;;;;6.88;2.95;;;-5.40;99.90;;;;;;5113971;28;20043;-83
2024/01/09 07:59:22;;;;;;;6.95;2.30;;;-5.50;99.90;;;;;;5125867;27;20050;-88
2024/01/09 08:01:54;;;;;;;5.88;2.60;;;-5.40;99.90;;;;;;5105791;27;20146;-85
2024/01/09 08:04:22;;;;;;;9.13;3.05;;;-4.30;99.90;;;;;;5112169;28;20065;-87
2024/01/09 08:06:50;;;;;;;7.47;3.15;;;-5.40;99.90;;;;;;5116474;28;20055;-90
2024/01/09 08:09:17;;;;;;;5.13;2.58;;;-4.90;99.90;;;;;;5118304;27;20035;-88
2024/01/09 08:11:43;;;;;;;5.53;3.20;;;-5.50;99.90;;;;;;5136536;27;20134;-88
2024/01/09 08:14:09;;;;;;;8.13;3.25;;;-5.50;99.90;;;;;;5134500;27;20228;-88
2024/01/09 08:16:35;;;;;;;5.30;2.72;;;-5.40;99.90;;;;;;5134330;28;20039;-89
2024/01/09 08:19:00;;;;;;;7.72;3.90;;;-5.40;99.90;;;;;;5132869;28;20050;-88
2024/01/09 08:21:26;;;;;;;8.32;3.42;;;-5.40;99.90;;;;;;5116332;28;20054;-87
2024/01/09 08:23:52;;;;;;;8.63;3.80;;;-5.60;99.90;;;;;;5116495;28;20050;-88
2024/01/09 08:26:17;;;;;;;7.10;3.67;;;-5.70;99.90;;;;;;5134760;28;20532;-88
2024/01/09 08:28:44;;;;;;;6.38;3.40;;;-5.40;99.90;;;;;;5116695;28;20039;-85
2024/01/09 08:31:10;;;;;;;7.45;3.72;;;-5.30;99.90;;;;;;5125486;28;20047;-90
2024/01/09 08:33:36;;;;;;;9.93;4.07;;;-5.30;99.90;;;;;;5113638;28;20476;-88
2024/01/09 08:36:02;;;;;;;7.47;3.78;;;-5.20;99.90;;;;;;5092053;28;20437;-87
2024/01/09 08:38:28;;;;;;;7.18;3.63;;;-5.20;99.90;;;;;;5134153;28;20066;-87
2024/01/09 08:40:55;;;;;;;6.82;3.58;;;-4.20;99.90;;;;;;5134584;28;20039;-83
2024/01/09 08:43:24;;;;;;;11.27;4.35;;;-5.20;99.90;;;;;;5115566;28;20122;-86
2024/01/09 08:45:50;;;;;;;6.93;3.95;;;-4.60;99.90;;;;;;5134055;28;20078;-87
2024/01/09 08:48:17;;;;;;;9.57;4.35;;;-5.00;99.90;;;;;;5133893;28;20070;-87
2024/01/09 08:50:43;;;;;;;6.70;3.95;;;-5.00;99.90;;;;;;5131922;28;20079;-87
2024/01/09 08:53:09;;;;;;;9.35;4.00;;;-4.80;99.90;;;;;;5115538;28;20464;-86
2024/01/09 08:55:35;;;;;;;9.80;4.35;;;-3.40;99.90;;;;;;5115325;28;20047;-85
2024/01/09 08:58:00;;;;;;;11.25;4.68;;;-4.80;99.90;;;;;;5082029;28;20052;-86
2024/01/09 09:00:26;;;;;;;11.25;4.75;;;-3.10;99.90;;;;;;5112878;28;20040;-84
2024/01/09 09:02:52;;;;;;;9.40;4.45;;;-4.60;99.90;;;;;;5102357;28;20051;-83
2024/01/09 09:05:18;;;;;;;8.02;4.18;;;-4.00;99.90;;;;;;5133377;28;20039;-82
2024/01/09 09:07:43;;;;;;;9.05;4.35;;;-4.40;99.90;;;;;;5098103;28;20112;-87
2024/01/09 09:10:09;;;;;;;9.00;4.40;;;-4.30;99.90;;;;;;5135031;27;20092;-86
2024/01/09 09:12:35;;;;;;;8.63;3.65;;;-4.30;99.90;;;;;;5137301;27;20078;-85
2024/01/09 09:15:04;;;;;;;8.85;3.90;;;-4.40;99.90;;;;;;5118944;27;20053;-86
2024/01/09 09:17:33;;;;;;;5.53;3.15;;;-4.20;99.90;;;;;;5101978;28;20044;-85
2024/01/09 09:19:59;;;;;;;7.18;3.63;;;-4.20;99.90;;;;;;5111414;28;20040;-85
2024/01/09 09:22:25;;;;;;;8.98;3.92;;;-3.50;99.90;;;;;;5116435;28;20494;-85
2024/01/09 09:24:54;;;;;;;7.90;4.10;;;-4.00;99.90;;;;;;5098316;28;20057;-86
2024/01/09 09:27:20;;;;;;;7.20;3.90;;;-3.00;99.90;;;;;;5081283;28;20071;-85
2024/01/09 09:29:46;;;;;;;8.55;4.35;;;-3.90;99.90;;;;;;5097928;28;20083;-85
2024/01/09 09:32:11;;;;;;;6.90;3.90;;;-3.80;99.90;;;;;;5116497;28;20086;-84
2024/01/09 09:34:40;;;;;;;7.03;3.85;;;-3.80;99.90;;;;;;5103652;27;20139;-85
2024/01/09 09:37:07;;;;;;;8.50;4.50;;;-3.80;99.90;;;;;;5101513;27;20450;-84
2024/01/09 09:39:36;;;;;;;8.88;4.35;;;-3.70;99.90;;;;;;5118473;27;20085;-84
2024/01/09 09:42:02;;;;;;;9.15;3.63;;;-3.60;99.90;;;;;;5118407;27;20130;-84
2024/01/09 09:44:28;;;;;;;6.75;3.15;;;-3.60;99.90;;;;;;5118083;27;20122;-83
2024/01/09 09:46:57;;;;;;;7.03;3.40;;;-3.60;99.90;;;;;;5136485;27;20110;-83
2024/01/09 09:49:23;;;;;;;8.90;3.90;;;-3.50;99.90;;;;;;5116282;27;20058;-85
2024/01/09 09:51:50;;;;;;;9.07;4.35;;;-3.40;99.90;;;;;;5120079;27;20048;-84
2024/01/09 09:54:16;;;;;;;7.95;4.00;;;-3.40;99.90;;;;;;5117742;27;20055;-84
2024/01/09 09:56:44;;;;;;;6.97;3.22;;;-3.30;99.90;;;;;;5130308;27;20107;-85
2024/01/09 09:59:11;;;;;;;6.38;3.70;;;-3.30;99.90;;;;;;5115794;28;20113;-85
2024/01/09 10:01:38;;;;;;;9.25;4.40;;;-3.20;99.90;;;;;;5097462;28;20052;-85
2024/01/09 10:04:27;;;;;;;8.60;4.07;;;-3.20;99.90;;;;;;5115763;28;20374;-83
2024/01/09 10:06:58;;;;;;;8.38;4.00;;;-3.20;99.90;;;;;;5097405;28;20130;-84
2024/01/09 10:09:31;;;;;;;6.20;3.55;;;-3.10;99.90;;;;;;5097514;28;20063;-84
2024/01/09 10:11:56;;;;;;;6.85;3.72;;;-2.30;99.90;;;;;;5115481;28;20039;-86
2024/01/09 10:14:22;;;;;;;6.95;3.47;;;-1.70;99.90;;;;;;5080287;28;20157;-84
2024/01/09 10:16:49;;;;;;;6.85;2.72;;;-0.70;99.90;;;;;;5097386;28;20431;-83
2024/01/09 10:19:15;;;;;;;9.15;3.65;;;-3.00;99.90;;;;;;5097113;28;20044;-84
2024/01/09 10:21:41;;;;;;;8.95;3.90;;;-3.00;99.90;;;;;;5079797;28;20104;-83
2024/01/09 10:24:08;;;;;;;6.60;3.45;;;-2.00;99.90;;;;;;5119011;27;20059;-82
2024/01/09 10:26:34;;;;;;;8.43;3.03;;;-1.90;99.90;;;;;;5115224;28;20134;-83
2024/01/09 10:29:00;;;;;;;5.55;2.60;;;-2.80;99.90;;;;;;5097122;28;20071;-82
2024/01/09 10:31:25;;;;;;;5.25;2.95;;;-2.80;99.90;;;;;;5115114;28;20483;-84
2024/01/09 10:33:51;;;;;;;6.50;3.40;;;-2.70;99.90;;;;;;5128527;27;20107;-83
2024/01/09 10:36:16;;;;;;;5.95;2.88;;;-2.70;99.90;;;;;;5106688;27;20047;-82
2024/01/09 10:38:45;;;;;;;4.93;2.70;;;-1.60;99.90;;;;;;5117338;27;20047;-83
2024/01/09 10:41:18;;;;;;;8.18;4.03;;;-2.70;99.90;;;;;;5135532;27;20114;-83
2024/01/09 10:43:44;;;;;;;9.18;3.30;;;-2.60;99.90;;;;;;5108789;28;20105;-83
2024/01/09 10:46:10;;;;;;;6.70;3.22;;;-2.60;99.90;;;;;;5096439;28;20426;-84
2024/01/09 10:48:38;;;;;;;6.78;3.47;;;-2.60;99.90;;;;;;5114246;28;20130;-83
2024/01/09 10:51:05;;;;;;;6.20;3.45;;;-2.50;99.90;;;;;;5096260;28;20040;-83
2024/01/09 10:53:33;;;;;;;6.18;2.97;;;-2.50;99.90;;;;;;5115758;27;20039;-83
2024/01/09 10:56:00;;;;;;;5.65;3.30;;;-1.80;99.90;;;;;;5095789;28;20070;-83
2024/01/09 10:58:26;;;;;;;6.88;3.00;;;-2.40;99.90;;;;;;5114515;28;20047;-84
2024/01/09 11:00:52;;;;;;;6.85;3.03;;;-1.90;99.90;;;;;;5096226;28;20118;-83
2024/01/09 11:03:19;;;;;;;7.82;3.53;;;-1.90;99.90;;;;;;5103927;28;20486;-84
2024/01/09 11:05:48;;;;;;;6.68;3.15;;;-1.30;99.90;;;;;;5112045;27;20054;-84
2024/01/09 11:08:18;;;;;;;5.55;3.30;;;-2.30;99.90;;;;;;5116787;27;20085;-83
2024/01/09 11:10:44;;;;;;;7.68;3.03;;;-2.30;99.90;;;;;;5122263;27;20043;-84
2024/01/09 11:13:12;;;;;;;5.85;2.72;;;-2.30;99.90;;;;;;5096189;28;20118;-84
2024/01/09 11:15:46;;;;;;;5.50;2.65;;;-0.70;99.90;;;;;;5096298;28;20039;-83
2024/01/09 11:18:16;;;;;;;3.92;2.50;;;-2.10;99.90;;;;;;5079994;27;20399;-84
2024/01/09 11:20:43;;;;;;;6.95;3.03;;;-0.90;99.90;;;;;;5078892;28;20042;-84
2024/01/09 11:23:12;;;;;;;4.72;2.40;;;-2.20;99.90;;;;;;5096595;28;20089;-84
2024/01/09 11:25:38;;;;;;;5.63;2.33;;;-1.70;99.90;;;;;;5099672;28;20369;-83
2024/01/09 11:28:04;;;;;;;7.00;2.50;;;-2.10;99.90;;;;;;5095971;28;20051;-87
2024/01/09 11:30:32;;;;;;;5.93;2.85;;;-2.00;99.90;;;;;;5124220;27;20395;-84
2024/01/09 11:33:25;;;;;;;4.63;2.58;;;-1.40;99.90;;;;;;5111874;28;20044;-84
2024/01/09 11:35:50;;;;;;;5.28;2.55;;;-1.90;99.90;;;;;;5076281;28;20075;-86
2024/01/09 11:38:17;;;;;;;7.00;3.10;;;-1.30;99.90;;;;;;5095629;28;20488;-86
2024/01/09 11:40:44;;;;;;;5.88;2.90;;;-0.90;99.90;;;;;;5078624;28;20491;-84
2024/01/09 11:43:10;;;;;;;7.65;3.33;;;-1.90;99.90;;;;;;5095332;28;20515;-86
2024/01/09 11:45:36;;;;;;;5.47;3.15;;;-2.10;99.90;;;;;;5095628;28;20039;-86
2024/01/09 11:48:01;;;;;;;6.28;2.90;;;-1.80;99.90;;;;;;5113705;28;20044;-86
2024/01/09 11:50:27;;;;;;;5.78;3.08;;;-1.70;99.90;;;;;;5132540;27;20116;-85
2024/01/09 11:52:56;;;;;;;4.90;2.35;;;-1.80;99.90;;;;;;5145935;27;20099;-85
2024/01/09 11:55:23;;;;;;;4.93;2.85;;;-1.10;99.90;;;;;;5133648;27;20499;-85
2024/01/09 11:57:49;;;;;;;4.85;2.40;;;-2.20;99.90;;;;;;5136293;27;20055;-86
2024/01/09 12:00:15;;;;;;;7.22;2.78;;;-1.60;99.90;;;;;;5115583;27;20061;-85
2024/01/09 12:02:41;;;;;;;4.72;2.85;;;-1.60;99.90;;;;;;5115787;28;20130;-85
2024/01/09 12:05:07;;;;;;;5.70;2.33;;;-0.90;99.90;;;;;;5115888;28;20117;-86
2024/01/09 12:07:35;;;;;;;6.07;3.15;;;-1.50;99.90;;;;;;5133999;27;20122;-85
2024/01/09 12:10:02;;;;;;;5.32;2.55;;;-1.60;99.90;;;;;;5115862;28;20039;-84
2024/01/09 12:12:28;;;;;;;3.88;2.25;;;-1.90;99.90;;;;;;5106417;28;20392;-84
2024/01/09 12:14:55;;;;;;;4.47;3.30;;;-0.50;99.90;;;;;;5112456;28;20046;-85
2024/01/09 12:17:23;;;;;;;7.03;2.53;;;-1.40;99.90;;;;;;5115707;28;20039;-87
2024/01/09 12:19:52;;;;;;;6.78;2.55;;;-1.40;99.90;;;;;;5098214;27;20039;-84
2024/01/09 12:22:19;;;;;;;5.15;2.38;;;-1.30;99.90;;;;;;5135744;27;20030;-84
2024/01/09 12:24:46;;;;;;;6.22;2.20;;;-1.70;99.90;;;;;;5122449;28;20114;-84
2024/01/09 12:27:12;;;;;;;4.90;2.42;;;-1.30;99.90;;;;;;5115557;28;20055;-84
2024/01/09 12:29:40;;;;;;;5.15;2.25;;;-1.30;99.90;;;;;;5134641;28;20043;-83
2024/01/09 12:32:06;;;;;;;5.13;2.30;;;-1.20;99.90;;;;;;5114106;28;20420;-83
2024/01/09 12:34:32;;;;;;;3.78;1.83;;;-1.20;99.90;;;;;;5133649;28;20051;-84
2024/01/09 12:37:00;;;;;;;4.47;2.03;;;-0.60;99.90;;;;;;5115539;28;20490;-84
2024/01/09 12:39:26;;;;;;;3.95;2.22;;;-1.30;99.90;;;;;;5115672;28;20043;-83
2024/01/09 12:42:06;;;;;;;3.97;1.77;;;-1.10;99.90;;;;;;5115852;28;20050;-84
2024/01/09 12:44:32;;;;;;;3.72;1.55;;;-1.10;99.90;;;;;;5100808;27;20059;-84